• Join FlightAware (Why Join?)
  • Login
  • US Flag 
07:16PM EDT


 

Airport Tracker/Info


-or-


 

Live Flight TrackerFlight Track Log ✈ THY2474 ✈ 22-Jul-2013 ✈ LTBA / IST - LTAF / ADA

Flight Track Log - Related Links

Times and Time Zones

All times are in EDT time to prevent confusion due to time zone crossing. See the THY2474 flight status page for this flight to view local times or setup timezone preferences in your user account.

Time Position Orientation Groundspeed Altitude Reporting Facility
EDT Latitude Longitude Course Direction KTS MPH feet Rate Location/Type
03:20PM 40.5368 29.6009 126° Southeast  Level Estimated
03:21PM 40.4735 29.7115 127° Southeast  Level Estimated
03:22PM 40.4100 29.8218 127° Southeast  Level Estimated
03:23PM 40.3465 29.9320 127° Southeast  Level Estimated
03:24PM 40.2829 30.0419 127° Southeast  Level Estimated
03:25PM 40.2192 30.1516 127° Southeast  Level Estimated
03:26PM 40.1554 30.2612 127° Southeast  Level Estimated
03:27PM 40.0914 30.3705 127° Southeast  Level Estimated
03:28PM 40.0274 30.4796 127° Southeast  Level Estimated
03:29PM 39.9633 30.5885 128° Southeast  Level Estimated
03:30PM 39.8991 30.6972 128° Southeast  Level Estimated
03:31PM 39.8347 30.8057 128° Southeast  Level Estimated
03:32PM 39.7703 30.9140 128° Southeast  Level Estimated
03:33PM 39.7058 31.0221 128° Southeast  Level Estimated
03:34PM 39.6411 31.1300 128° Southeast  Level Estimated
03:35PM 39.5764 31.2377 128° Southeast  Level Estimated
03:36PM 39.5116 31.3452 128° Southeast  Level Estimated
03:37PM 39.4466 31.4524 128° Southeast  Level Estimated
03:38PM 39.3816 31.5595 128° Southeast  Level Estimated
03:39PM 39.3165 31.6664 128° Southeast  Level Estimated
03:40PM 39.2512 31.7731 128° Southeast  Level Estimated
03:41PM 39.1859 31.8796 128° Southeast  Level Estimated
03:42PM 39.1205 31.9859 128° Southeast  Level Estimated
03:43PM 39.0550 32.0920 128° Southeast  Level Estimated
03:44PM 38.9894 32.1979 129° Southeast  Level Estimated
03:45PM 38.9237 32.3036 129° Southeast  Level Estimated
03:46PM 38.8579 32.4091 129° Southeast  Level Estimated
03:47PM 38.7920 32.5144 129° Southeast  Level Estimated
03:48PM 38.7260 32.6195 129° Southeast  Level Estimated
03:49PM 38.6599 32.7245 129° Southeast  Level Estimated
03:50PM 38.5937 32.8292 129° Southeast  Level Estimated
03:51PM 38.5274 32.9337 129° Southeast  Level Estimated
03:52PM 38.4611 33.0381 129° Southeast  Level Estimated
03:53PM 38.3946 33.1422 129° Southeast  Level Estimated
03:54PM 38.3280 33.2462 129° Southeast  Level Estimated
03:55PM 38.2614 33.3499 129° Southeast  Level Estimated
03:56PM 38.1947 33.4535 129° Southeast  Level Estimated
03:57PM 38.1279 33.5569 129° Southeast  Level Estimated
03:58PM 38.0610 33.6601 129° Southeast  Level Estimated
03:59PM 37.9939 33.7631 130° Southeast  Level Estimated
04:00PM 37.9268 33.8660 130° Southeast  Level Estimated
04:01PM 37.8597 33.9686 130° Southeast  Level Estimated
04:02PM 37.7924 34.0710 130° Southeast  Level Estimated
04:03PM 37.7250 34.1733 130° Southeast  Level Estimated
04:04PM 37.6576 34.2754 130° Southeast  Level Estimated
04:05PM 37.5900 34.3773 130° Southeast  Level Estimated
04:06PM 37.5224 34.4790 130° Southeast  Level Estimated
04:07PM 37.4547 34.5805 130° Southeast  Level Estimated
04:08PM 37.3869 34.6818 130° Southeast  Level Estimated
04:09PM 37.3190 34.7830 130° Southeast  Level Estimated
04:10PM 37.2510 34.8840 130° Southeast  Level Estimated
04:11PM 37.1830 34.9847 130° Southeast  Level Estimated
04:12PM 37.1148 35.0854 130° Southeast  Level Estimated
04:13PM 37.0466 35.1858 130° Southeast  Level Estimated
04:14PM 36.9822 35.2804 130° Southeast  Level Estimated
04:15PM 36.9822 35.2804 202° Southwest  Level Estimated
04:16PM 36.9822 35.2804 202° Southwest  Level Estimated
04:17PM 36.9822 35.2804 202° Southwest  Level Estimated
04:18PM 36.9822 35.2804 202° Southwest  Level Estimated
04:19PM 36.9822 35.2804 202° Southwest  Level Estimated
04:20PM 36.9822 35.2804 202° Southwest  Level Estimated
04:21PM 36.9822 35.2804 202° Southwest  Level Estimated
04:22PM 36.9822 35.2804 202° Southwest  Level Estimated
04:23PM 36.9822 35.2804 202° Southwest  Level Estimated
04:24PM 36.9822 35.2804 202° Southwest  Level Estimated
04:25PM 36.9822 35.2804 202° Southwest  Level Estimated
04:26PM 36.9822 35.2804 202° Southwest  Level Estimated
04:27PM 36.9822 35.2804 202° Southwest  Level Estimated
04:28PM 36.9822 35.2804 202° Southwest  Level Estimated
04:29PM 36.9822 35.2804 202° Southwest  Level Estimated
04:30PM 36.9822 35.2804 202° Southwest  Level Estimated